Bissell, Mississippi
Current Conditions -  °F | °C
As of 1:53 AM on Saturday 29 Nov 2014 (Local Time) from KTUP Reporting Station
Clear Clear  
Wind Chill: 32°   Ceiling: Unl
Heat Index: 38°   Visibility: 10mi
Dew Point: 28°   Wind: 8mph
Humidity: 68%   Direction: 190°S
Pressure: 30.16"   Gusts: NA
Location:  34.2235°N, 88.7398°W
Report Text: KTUP 290753Z AUTO 19007KT 10SM CLR 03/M02 A3016 RMK AO2 SLP214 T00331022 $
Loading
Personal Weather Stations






























Interactive Weather Map New forecast layout! Learn more

10-Day Weather Forecast

Advertisements
Track Severe Weather on mobile